Fox — 9HAE9 — position and weather

sailwx.info

Track history (hours):
 
Tides and Currents Weather Stations Pressure Air Temp Water Temp Dewpoint Dewpoint Depression Visibility Wind Speed Wind Dir Waves Ship Positions

Fox

Last reported at 2017-Nov-29 07:15 UTC. Time now 2017-Dec-12 23:50 UTC.
Position N 32°53' E 034°59'.
Warning: this ship's position is 13 days out of date.

Length 120 m; draft 6.8 m.

Type: Cargo ship. MMSI: 256678000.

Date/timePositionNaut miles runAvg speedWind from/ knotsBaromVisibWave heightAir tempDewpointWater temp
2017-Nov-29 07:15N 32°53' E 034°59'3 8.6
2017-Nov-29 06:56N 32°53' E 034°56'440 9.9
2017-Nov-27 10:24N 36°42' E 027°19'43 8.7
2017-Nov-27 05:25N 37°19' E 026°51'510.1
2017-Nov-27 04:58N 37°23' E 026°48'510.0
2017-Nov-27 04:30N 37°26' E 026°45'12 9.6
2017-Nov-27 03:18N 37°36' E 026°36'1310.0
2017-Nov-27 02:01N 37°47' E 026°28'0 9.6
2017-Nov-27 02:01N 37°47' E 026°28'  
2017-Nov-23 14:03N 46°23' E 030°55'110.2
2017-Nov-23 13:55N 46°24' E 030°55'510.0
2017-Nov-23 13:28N 46°28' E 030°55'4 9.3
2017-Nov-23 13:00N 46°33' E 030°57'31 9.3
2017-Nov-23 09:38N 46°36' E 031°43'1 9.7
2017-Nov-23 09:30N 46°36' E 031°45'4 8.9
2017-Nov-23 09:01N 46°35' E 031°51'4 8.7
2017-Nov-23 08:30N 46°34' E 031°57'5 8.9
2017-Nov-23 07:59N 46°32' E 032°03'4 8.8
2017-Nov-23 07:31N 46°32' E 032°10'  
Track history (hours):
 
Tides and Currents Weather Stations Pressure Air Temp Water Temp Dewpoint Dewpoint Depression Visibility Wind Speed Wind Dir Waves Ship Positions

Fox

Last reported at 2017-Nov-29 07:15 UTC. Time now 2017-Dec-12 23:50 UTC.
Position N 32°53' E 034°59'.
Warning: this ship's position is 13 days out of date.

Length 120 m; draft 6.8 m.

Type: Cargo ship. MMSI: 256678000.

Date/timePositionNaut miles runAvg speedWind from/ knotsBaromVisibWave heightAir tempDewpointWater temp
2017-Nov-29 07:15N 32°53' E 034°59'3 8.6
2017-Nov-29 06:56N 32°53' E 034°56'440 9.9
2017-Nov-27 10:24N 36°42' E 027°19'43 8.7
2017-Nov-27 05:25N 37°19' E 026°51'510.1
2017-Nov-27 04:58N 37°23' E 026°48'510.0
2017-Nov-27 04:30N 37°26' E 026°45'12 9.6
2017-Nov-27 03:18N 37°36' E 026°36'1310.0
2017-Nov-27 02:01N 37°47' E 026°28'0 9.6
2017-Nov-27 02:01N 37°47' E 026°28'  
2017-Nov-23 14:03N 46°23' E 030°55'110.2
2017-Nov-23 13:55N 46°24' E 030°55'510.0
2017-Nov-23 13:28N 46°28' E 030°55'4 9.3
2017-Nov-23 13:00N 46°33' E 030°57'31 9.3
2017-Nov-23 09:38N 46°36' E 031°43'1 9.7
2017-Nov-23 09:30N 46°36' E 031°45'4 8.9
2017-Nov-23 09:01N 46°35' E 031°51'4 8.7
2017-Nov-23 08:30N 46°34' E 031°57'5 8.9
2017-Nov-23 07:59N 46°32' E 032°03'4 8.8
2017-Nov-23 07:31N 46°32' E 032°10'  

Dump ship's entire track history